sensor_id;sensor_type;location;lat;lon;timestamp;P1;durP1;ratioP1;P2;durP2;ratioP2
6205;SDS011;3136;48.788;9.772;2024-03-02T00:01:17;26.13;;;13.43;;
6205;SDS011;3136;48.788;9.772;2024-03-02T00:03:45;29.30;;;14.10;;
6205;SDS011;3136;48.788;9.772;2024-03-02T00:06:11;26.67;;;13.50;;
6205;SDS011;3136;48.788;9.772;2024-03-02T00:08:37;26.30;;;14.03;;
6205;SDS011;3136;48.788;9.772;2024-03-02T00:11:02;27.77;;;14.00;;
6205;SDS011;3136;48.788;9.772;2024-03-02T00:13:28;24.90;;;12.77;;
6205;SDS011;3136;48.788;9.772;2024-03-02T00:15:56;28.67;;;13.07;;
6205;SDS011;3136;48.788;9.772;2024-03-02T00:18:32;25.13;;;13.33;;
6205;SDS011;3136;48.788;9.772;2024-03-02T00:20:59;23.93;;;13.60;;
6205;SDS011;3136;48.788;9.772;2024-03-02T00:23:27;28.20;;;13.57;;
6205;SDS011;3136;48.788;9.772;2024-03-02T00:25:56;29.30;;;15.37;;
6205;SDS011;3136;48.788;9.772;2024-03-02T00:28:27;32.37;;;15.60;;
6205;SDS011;3136;48.788;9.772;2024-03-02T00:33:48;28.10;;;12.97;;
6205;SDS011;3136;48.788;9.772;2024-03-02T00:36:21;27.07;;;12.80;;
6205;SDS011;3136;48.788;9.772;2024-03-02T00:38:50;28.00;;;12.90;;
6205;SDS011;3136;48.788;9.772;2024-03-02T00:46:31;27.60;;;14.83;;
6205;SDS011;3136;48.788;9.772;2024-03-02T00:49:00;29.67;;;14.00;;
6205;SDS011;3136;48.788;9.772;2024-03-02T00:51:27;29.43;;;13.40;;
6205;SDS011;3136;48.788;9.772;2024-03-02T00:53:55;26.73;;;13.20;;
6205;SDS011;3136;48.788;9.772;2024-03-02T00:56:31;25.77;;;13.00;;
6205;SDS011;3136;48.788;9.772;2024-03-02T00:58:57;28.73;;;14.23;;
6205;SDS011;3136;48.788;9.772;2024-03-02T01:01:23;26.17;;;13.70;;
6205;SDS011;3136;48.788;9.772;2024-03-02T01:03:49;26.00;;;13.03;;
6205;SDS011;3136;48.788;9.772;2024-03-02T01:06:15;22.87;;;12.50;;
6205;SDS011;3136;48.788;9.772;2024-03-02T01:08:41;25.57;;;12.60;;
6205;SDS011;3136;48.788;9.772;2024-03-02T01:11:07;25.73;;;12.83;;
6205;SDS011;3136;48.788;9.772;2024-03-02T01:13:32;27.37;;;13.47;;
6205;SDS011;3136;48.788;9.772;2024-03-02T01:15:58;25.27;;;13.27;;
6205;SDS011;3136;48.788;9.772;2024-03-02T01:18:24;25.60;;;12.67;;
6205;SDS011;3136;48.788;9.772;2024-03-02T01:20:50;24.63;;;12.30;;
6205;SDS011;3136;48.788;9.772;2024-03-02T01:23:21;28.57;;;12.37;;
6205;SDS011;3136;48.788;9.772;2024-03-02T01:25:50;25.40;;;12.70;;
6205;SDS011;3136;48.788;9.772;2024-03-02T01:28:17;26.67;;;12.53;;
6205;SDS011;3136;48.788;9.772;2024-03-02T01:30:44;27.30;;;13.07;;
6205;SDS011;3136;48.788;9.772;2024-03-02T01:33:09;25.70;;;12.00;;
6205;SDS011;3136;48.788;9.772;2024-03-02T01:35:35;31.30;;;13.50;;
6205;SDS011;3136;48.788;9.772;2024-03-02T01:38:02;26.23;;;13.23;;
6205;SDS011;3136;48.788;9.772;2024-03-02T01:40:28;27.70;;;13.93;;
6205;SDS011;3136;48.788;9.772;2024-03-02T01:42:54;29.30;;;12.83;;
6205;SDS011;3136;48.788;9.772;2024-03-02T01:45:20;22.37;;;12.13;;
6205;SDS011;3136;48.788;9.772;2024-03-02T01:47:47;27.40;;;13.33;;
6205;SDS011;3136;48.788;9.772;2024-03-02T01:50:12;26.50;;;13.33;;
6205;SDS011;3136;48.788;9.772;2024-03-02T01:52:38;27.27;;;13.00;;
6205;SDS011;3136;48.788;9.772;2024-03-02T01:55:04;23.97;;;12.43;;
6205;SDS011;3136;48.788;9.772;2024-03-02T01:57:31;24.57;;;12.30;;
6205;SDS011;3136;48.788;9.772;2024-03-02T01:59:57;24.10;;;12.43;;
6205;SDS011;3136;48.788;9.772;2024-03-02T02:02:22;26.87;;;13.33;;
6205;SDS011;3136;48.788;9.772;2024-03-02T02:04:48;25.13;;;12.57;;
6205;SDS011;3136;48.788;9.772;2024-03-02T02:07:13;23.30;;;12.00;;
6205;SDS011;3136;48.788;9.772;2024-03-02T02:09:42;25.83;;;12.73;;
6205;SDS011;3136;48.788;9.772;2024-03-02T02:12:09;31.57;;;13.57;;
6205;SDS011;3136;48.788;9.772;2024-03-02T02:14:35;26.20;;;12.73;;
6205;SDS011;3136;48.788;9.772;2024-03-02T02:17:00;24.57;;;11.70;;
6205;SDS011;3136;48.788;9.772;2024-03-02T02:19:26;27.50;;;13.43;;
6205;SDS011;3136;48.788;9.772;2024-03-02T02:21:52;28.50;;;12.50;;
6205;SDS011;3136;48.788;9.772;2024-03-02T02:24:17;22.20;;;11.97;;
6205;SDS011;3136;48.788;9.772;2024-03-02T02:26:43;27.00;;;12.10;;
6205;SDS011;3136;48.788;9.772;2024-03-02T02:29:09;20.97;;;12.13;;
6205;SDS011;3136;48.788;9.772;2024-03-02T02:31:41;22.30;;;12.07;;
6205;SDS011;3136;48.788;9.772;2024-03-02T02:34:07;21.03;;;11.70;;
6205;SDS011;3136;48.788;9.772;2024-03-02T02:36:34;21.47;;;11.97;;
6205;SDS011;3136;48.788;9.772;2024-03-02T02:39:03;23.97;;;12.17;;
6205;SDS011;3136;48.788;9.772;2024-03-02T02:41:31;23.03;;;12.40;;
6205;SDS011;3136;48.788;9.772;2024-03-02T02:43:57;25.07;;;12.53;;
6205;SDS011;3136;48.788;9.772;2024-03-02T02:46:23;26.47;;;12.83;;
6205;SDS011;3136;48.788;9.772;2024-03-02T02:48:48;27.63;;;12.63;;
6205;SDS011;3136;48.788;9.772;2024-03-02T02:51:14;27.93;;;12.20;;
6205;SDS011;3136;48.788;9.772;2024-03-02T02:53:40;26.63;;;12.63;;
6205;SDS011;3136;48.788;9.772;2024-03-02T02:56:08;26.07;;;12.90;;
6205;SDS011;3136;48.788;9.772;2024-03-02T02:58:34;22.30;;;12.37;;
6205;SDS011;3136;48.788;9.772;2024-03-02T03:01:00;27.40;;;12.90;;
6205;SDS011;3136;48.788;9.772;2024-03-02T03:03:26;27.47;;;12.90;;
6205;SDS011;3136;48.788;9.772;2024-03-02T03:05:51;25.30;;;12.77;;
6205;SDS011;3136;48.788;9.772;2024-03-02T03:08:17;26.67;;;13.77;;
6205;SDS011;3136;48.788;9.772;2024-03-02T03:10:42;29.03;;;13.50;;
6205;SDS011;3136;48.788;9.772;2024-03-02T03:13:08;25.73;;;13.13;;
6205;SDS011;3136;48.788;9.772;2024-03-02T03:15:34;29.17;;;12.53;;
6205;SDS011;3136;48.788;9.772;2024-03-02T03:18:01;31.80;;;13.07;;
6205;SDS011;3136;48.788;9.772;2024-03-02T03:20:30;29.10;;;13.10;;
6205;SDS011;3136;48.788;9.772;2024-03-02T03:22:56;28.33;;;12.10;;
6205;SDS011;3136;48.788;9.772;2024-03-02T03:25:22;26.27;;;12.20;;
6205;SDS011;3136;48.788;9.772;2024-03-02T03:27:48;28.70;;;13.03;;
6205;SDS011;3136;48.788;9.772;2024-03-02T03:30:14;27.53;;;13.17;;
6205;SDS011;3136;48.788;9.772;2024-03-02T03:32:40;26.77;;;13.53;;
6205;SDS011;3136;48.788;9.772;2024-03-02T03:35:06;28.70;;;13.13;;
6205;SDS011;3136;48.788;9.772;2024-03-02T03:37:32;28.53;;;13.73;;
6205;SDS011;3136;48.788;9.772;2024-03-02T03:39:58;29.43;;;13.83;;
6205;SDS011;3136;48.788;9.772;2024-03-02T03:42:24;27.10;;;12.90;;
6205;SDS011;3136;48.788;9.772;2024-03-02T03:44:51;28.73;;;13.17;;
6205;SDS011;3136;48.788;9.772;2024-03-02T03:47:16;31.20;;;13.83;;
6205;SDS011;3136;48.788;9.772;2024-03-02T03:49:42;32.33;;;14.00;;
6205;SDS011;3136;48.788;9.772;2024-03-02T03:52:07;34.90;;;13.50;;
6205;SDS011;3136;48.788;9.772;2024-03-02T03:54:33;28.87;;;13.20;;
6205;SDS011;3136;48.788;9.772;2024-03-02T03:56:58;28.53;;;13.43;;
6205;SDS011;3136;48.788;9.772;2024-03-02T03:59:24;27.97;;;12.67;;
6205;SDS011;3136;48.788;9.772;2024-03-02T04:01:49;33.63;;;13.83;;
6205;SDS011;3136;48.788;9.772;2024-03-02T04:04:15;28.20;;;13.57;;
6205;SDS011;3136;48.788;9.772;2024-03-02T04:06:40;26.23;;;12.13;;
6205;SDS011;3136;48.788;9.772;2024-03-02T04:09:06;29.03;;;13.23;;
6205;SDS011;3136;48.788;9.772;2024-03-02T04:11:32;26.90;;;12.77;;
6205;SDS011;3136;48.788;9.772;2024-03-02T04:13:58;24.20;;;12.43;;
6205;SDS011;3136;48.788;9.772;2024-03-02T04:16:23;23.83;;;11.93;;
6205;SDS011;3136;48.788;9.772;2024-03-02T04:18:49;25.90;;;12.57;;
6205;SDS011;3136;48.788;9.772;2024-03-02T04:21:14;24.97;;;12.50;;
6205;SDS011;3136;48.788;9.772;2024-03-02T04:23:40;27.50;;;13.23;;
6205;SDS011;3136;48.788;9.772;2024-03-02T04:26:05;29.27;;;13.77;;
6205;SDS011;3136;48.788;9.772;2024-03-02T04:28:31;32.03;;;14.90;;
6205;SDS011;3136;48.788;9.772;2024-03-02T04:30:57;28.93;;;13.43;;
6205;SDS011;3136;48.788;9.772;2024-03-02T04:33:23;31.87;;;13.73;;
6205;SDS011;3136;48.788;9.772;2024-03-02T04:35:48;28.60;;;12.77;;
6205;SDS011;3136;48.788;9.772;2024-03-02T04:38:14;30.13;;;12.53;;
6205;SDS011;3136;48.788;9.772;2024-03-02T04:40:39;33.50;;;14.00;;
6205;SDS011;3136;48.788;9.772;2024-03-02T04:43:05;28.50;;;14.07;;
6205;SDS011;3136;48.788;9.772;2024-03-02T04:45:31;29.10;;;13.90;;
6205;SDS011;3136;48.788;9.772;2024-03-02T04:47:56;30.60;;;13.57;;
6205;SDS011;3136;48.788;9.772;2024-03-02T04:50:22;31.60;;;12.83;;
6205;SDS011;3136;48.788;9.772;2024-03-02T04:52:47;33.37;;;13.57;;
6205;SDS011;3136;48.788;9.772;2024-03-02T04:55:13;28.03;;;13.00;;
6205;SDS011;3136;48.788;9.772;2024-03-02T04:57:54;27.43;;;13.47;;
6205;SDS011;3136;48.788;9.772;2024-03-02T05:00:21;32.87;;;13.83;;
6205;SDS011;3136;48.788;9.772;2024-03-02T05:02:46;29.17;;;13.30;;
6205;SDS011;3136;48.788;9.772;2024-03-02T05:05:12;29.13;;;13.80;;
6205;SDS011;3136;48.788;9.772;2024-03-02T05:07:40;30.23;;;13.20;;
6205;SDS011;3136;48.788;9.772;2024-03-02T05:10:07;25.93;;;12.83;;
6205;SDS011;3136;48.788;9.772;2024-03-02T05:12:33;35.57;;;14.40;;
6205;SDS011;3136;48.788;9.772;2024-03-02T05:15:08;27.63;;;13.30;;
6205;SDS011;3136;48.788;9.772;2024-03-02T05:17:35;33.67;;;13.30;;
6205;SDS011;3136;48.788;9.772;2024-03-02T05:20:02;29.07;;;13.17;;
6205;SDS011;3136;48.788;9.772;2024-03-02T05:22:28;31.23;;;13.00;;
6205;SDS011;3136;48.788;9.772;2024-03-02T05:24:54;28.60;;;12.70;;
6205;SDS011;3136;48.788;9.772;2024-03-02T05:27:19;26.80;;;12.97;;
6205;SDS011;3136;48.788;9.772;2024-03-02T05:29:45;26.17;;;12.57;;
6205;SDS011;3136;48.788;9.772;2024-03-02T05:32:12;30.60;;;14.23;;
6205;SDS011;3136;48.788;9.772;2024-03-02T05:34:37;27.53;;;12.90;;
6205;SDS011;3136;48.788;9.772;2024-03-02T05:37:03;30.37;;;13.27;;
6205;SDS011;3136;48.788;9.772;2024-03-02T05:39:28;33.70;;;13.50;;
6205;SDS011;3136;48.788;9.772;2024-03-02T05:41:54;28.80;;;12.93;;
6205;SDS011;3136;48.788;9.772;2024-03-02T05:44:19;31.10;;;13.70;;
6205;SDS011;3136;48.788;9.772;2024-03-02T05:46:45;33.37;;;14.47;;
6205;SDS011;3136;48.788;9.772;2024-03-02T05:49:11;32.77;;;13.73;;
6205;SDS011;3136;48.788;9.772;2024-03-02T05:51:36;32.43;;;14.10;;
6205;SDS011;3136;48.788;9.772;2024-03-02T05:54:02;28.90;;;12.90;;
6205;SDS011;3136;48.788;9.772;2024-03-02T05:56:28;27.63;;;13.70;;
6205;SDS011;3136;48.788;9.772;2024-03-02T05:58:53;29.10;;;13.83;;
6205;SDS011;3136;48.788;9.772;2024-03-02T06:01:41;35.47;;;14.67;;
6205;SDS011;3136;48.788;9.772;2024-03-02T06:04:08;30.27;;;13.80;;
6205;SDS011;3136;48.788;9.772;2024-03-02T06:06:35;34.57;;;14.93;;
6205;SDS011;3136;48.788;9.772;2024-03-02T06:09:01;40.30;;;14.40;;
6205;SDS011;3136;48.788;9.772;2024-03-02T06:11:32;31.50;;;14.20;;
6205;SDS011;3136;48.788;9.772;2024-03-02T06:13:58;32.90;;;14.37;;
6205;SDS011;3136;48.788;9.772;2024-03-02T06:16:24;30.77;;;14.60;;
6205;SDS011;3136;48.788;9.772;2024-03-02T06:18:49;36.67;;;14.87;;
6205;SDS011;3136;48.788;9.772;2024-03-02T06:21:15;35.07;;;15.03;;
6205;SDS011;3136;48.788;9.772;2024-03-02T06:23:40;29.53;;;13.87;;
6205;SDS011;3136;48.788;9.772;2024-03-02T06:26:06;29.93;;;14.27;;
6205;SDS011;3136;48.788;9.772;2024-03-02T06:28:31;32.13;;;13.70;;
6205;SDS011;3136;48.788;9.772;2024-03-02T06:30:57;29.37;;;13.93;;
6205;SDS011;3136;48.788;9.772;2024-03-02T06:33:22;38.80;;;15.33;;
6205;SDS011;3136;48.788;9.772;2024-03-02T06:35:48;33.60;;;15.07;;
6205;SDS011;3136;48.788;9.772;2024-03-02T06:38:14;28.63;;;13.80;;
6205;SDS011;3136;48.788;9.772;2024-03-02T06:40:39;38.40;;;15.73;;
6205;SDS011;3136;48.788;9.772;2024-03-02T06:43:05;29.83;;;14.30;;
6205;SDS011;3136;48.788;9.772;2024-03-02T06:45:31;32.93;;;13.83;;
6205;SDS011;3136;48.788;9.772;2024-03-02T06:47:58;34.27;;;15.37;;
6205;SDS011;3136;48.788;9.772;2024-03-02T06:50:24;38.93;;;16.70;;
6205;SDS011;3136;48.788;9.772;2024-03-02T06:52:50;36.13;;;15.70;;
6205;SDS011;3136;48.788;9.772;2024-03-02T06:55:15;32.57;;;15.43;;
6205;SDS011;3136;48.788;9.772;2024-03-02T06:57:41;38.13;;;16.40;;
6205;SDS011;3136;48.788;9.772;2024-03-02T07:00:06;42.23;;;16.87;;
6205;SDS011;3136;48.788;9.772;2024-03-02T07:02:33;38.97;;;18.07;;
6205;SDS011;3136;48.788;9.772;2024-03-02T07:05:00;37.80;;;18.97;;
6205;SDS011;3136;48.788;9.772;2024-03-02T07:07:25;39.93;;;17.77;;
6205;SDS011;3136;48.788;9.772;2024-03-02T07:09:51;39.03;;;16.67;;
6205;SDS011;3136;48.788;9.772;2024-03-02T07:12:16;42.17;;;17.67;;
6205;SDS011;3136;48.788;9.772;2024-03-02T07:14:42;38.30;;;17.83;;
6205;SDS011;3136;48.788;9.772;2024-03-02T07:17:26;53.83;;;27.90;;
6205;SDS011;3136;48.788;9.772;2024-03-02T07:19:51;43.37;;;22.90;;
6205;SDS011;3136;48.788;9.772;2024-03-02T07:22:17;39.87;;;21.03;;
6205;SDS011;3136;48.788;9.772;2024-03-02T07:24:43;41.70;;;19.73;;
6205;SDS011;3136;48.788;9.772;2024-03-02T07:27:10;38.60;;;18.50;;
6205;SDS011;3136;48.788;9.772;2024-03-02T07:29:37;39.40;;;18.27;;
6205;SDS011;3136;48.788;9.772;2024-03-02T07:32:03;37.73;;;17.17;;
6205;SDS011;3136;48.788;9.772;2024-03-02T07:34:29;34.70;;;17.17;;
6205;SDS011;3136;48.788;9.772;2024-03-02T07:36:55;34.97;;;18.27;;
6205;SDS011;3136;48.788;9.772;2024-03-02T07:39:21;37.40;;;19.27;;
6205;SDS011;3136;48.788;9.772;2024-03-02T07:41:47;40.27;;;19.77;;
6205;SDS011;3136;48.788;9.772;2024-03-02T07:44:13;39.07;;;19.87;;
6205;SDS011;3136;48.788;9.772;2024-03-02T07:46:40;36.17;;;18.50;;
6205;SDS011;3136;48.788;9.772;2024-03-02T07:49:06;36.80;;;19.77;;
6205;SDS011;3136;48.788;9.772;2024-03-02T07:51:32;37.83;;;19.60;;
6205;SDS011;3136;48.788;9.772;2024-03-02T07:53:58;38.87;;;18.90;;
6205;SDS011;3136;48.788;9.772;2024-03-02T07:56:23;41.90;;;19.63;;
6205;SDS011;3136;48.788;9.772;2024-03-02T07:58:49;37.23;;;18.57;;
6205;SDS011;3136;48.788;9.772;2024-03-02T08:01:15;37.20;;;18.90;;
6205;SDS011;3136;48.788;9.772;2024-03-02T08:03:42;37.87;;;17.40;;
6205;SDS011;3136;48.788;9.772;2024-03-02T08:06:12;36.07;;;18.17;;
6205;SDS011;3136;48.788;9.772;2024-03-02T08:08:42;37.50;;;19.47;;
6205;SDS011;3136;48.788;9.772;2024-03-02T08:11:07;37.33;;;18.80;;
6205;SDS011;3136;48.788;9.772;2024-03-02T08:13:33;34.13;;;17.87;;
6205;SDS011;3136;48.788;9.772;2024-03-02T08:15:58;31.63;;;16.57;;
6205;SDS011;3136;48.788;9.772;2024-03-02T08:18:24;31.80;;;17.50;;
6205;SDS011;3136;48.788;9.772;2024-03-02T08:20:50;33.73;;;17.43;;
6205;SDS011;3136;48.788;9.772;2024-03-02T08:23:15;37.03;;;17.93;;
6205;SDS011;3136;48.788;9.772;2024-03-02T08:25:42;36.40;;;19.53;;
6205;SDS011;3136;48.788;9.772;2024-03-02T08:28:07;37.07;;;19.13;;
6205;SDS011;3136;48.788;9.772;2024-03-02T08:30:33;30.43;;;17.70;;
6205;SDS011;3136;48.788;9.772;2024-03-02T08:32:59;30.57;;;16.97;;
6205;SDS011;3136;48.788;9.772;2024-03-02T08:35:25;26.80;;;16.23;;
6205;SDS011;3136;48.788;9.772;2024-03-02T08:37:50;28.77;;;15.87;;
6205;SDS011;3136;48.788;9.772;2024-03-02T08:40:16;24.20;;;14.57;;
6205;SDS011;3136;48.788;9.772;2024-03-02T08:42:42;25.83;;;15.30;;
6205;SDS011;3136;48.788;9.772;2024-03-02T08:45:07;23.87;;;13.90;;
6205;SDS011;3136;48.788;9.772;2024-03-02T08:47:33;20.17;;;13.67;;
6205;SDS011;3136;48.788;9.772;2024-03-02T08:49:59;20.30;;;14.63;;
6205;SDS011;3136;48.788;9.772;2024-03-02T08:52:26;21.37;;;14.27;;
6205;SDS011;3136;48.788;9.772;2024-03-02T08:54:51;20.10;;;14.27;;
6205;SDS011;3136;48.788;9.772;2024-03-02T08:57:17;20.10;;;12.93;;
6205;SDS011;3136;48.788;9.772;2024-03-02T08:59:43;14.17;;;9.90;;
6205;SDS011;3136;48.788;9.772;2024-03-02T09:02:09;14.40;;;10.03;;
6205;SDS011;3136;48.788;9.772;2024-03-02T09:04:35;13.90;;;10.27;;
6205;SDS011;3136;48.788;9.772;2024-03-02T09:07:01;13.40;;;9.33;;
6205;SDS011;3136;48.788;9.772;2024-03-02T09:09:27;11.57;;;8.03;;
6205;SDS011;3136;48.788;9.772;2024-03-02T09:11:52;9.10;;;6.70;;
6205;SDS011;3136;48.788;9.772;2024-03-02T09:14:20;7.73;;;6.27;;
6205;SDS011;3136;48.788;9.772;2024-03-02T09:16:46;7.50;;;5.67;;
6205;SDS011;3136;48.788;9.772;2024-03-02T09:19:11;7.03;;;5.73;;
6205;SDS011;3136;48.788;9.772;2024-03-02T09:21:37;6.87;;;5.60;;
6205;SDS011;3136;48.788;9.772;2024-03-02T09:24:03;5.00;;;4.23;;
6205;SDS011;3136;48.788;9.772;2024-03-02T09:26:28;4.63;;;3.97;;
6205;SDS011;3136;48.788;9.772;2024-03-02T09:28:54;6.43;;;3.83;;
6205;SDS011;3136;48.788;9.772;2024-03-02T09:31:20;4.10;;;3.50;;
6205;SDS011;3136;48.788;9.772;2024-03-02T09:33:45;4.33;;;3.27;;
6205;SDS011;3136;48.788;9.772;2024-03-02T09:36:18;5.50;;;3.77;;
6205;SDS011;3136;48.788;9.772;2024-03-02T09:38:47;4.00;;;3.60;;
6205;SDS011;3136;48.788;9.772;2024-03-02T09:41:13;4.97;;;4.07;;
6205;SDS011;3136;48.788;9.772;2024-03-02T09:43:40;5.67;;;4.57;;
6205;SDS011;3136;48.788;9.772;2024-03-02T09:46:06;6.43;;;4.23;;
6205;SDS011;3136;48.788;9.772;2024-03-02T09:48:35;4.93;;;4.30;;
6205;SDS011;3136;48.788;9.772;2024-03-02T09:51:01;4.13;;;3.50;;
6205;SDS011;3136;48.788;9.772;2024-03-02T09:53:29;4.27;;;3.77;;
6205;SDS011;3136;48.788;9.772;2024-03-02T09:55:56;4.93;;;3.80;;
6205;SDS011;3136;48.788;9.772;2024-03-02T09:58:23;4.30;;;3.80;;
6205;SDS011;3136;48.788;9.772;2024-03-02T10:00:49;3.50;;;3.20;;
6205;SDS011;3136;48.788;9.772;2024-03-02T10:03:14;4.70;;;3.23;;
6205;SDS011;3136;48.788;9.772;2024-03-02T10:05:40;3.83;;;3.20;;
6205;SDS011;3136;48.788;9.772;2024-03-02T10:08:05;4.87;;;3.40;;
6205;SDS011;3136;48.788;9.772;2024-03-02T10:10:38;4.10;;;3.13;;
6205;SDS011;3136;48.788;9.772;2024-03-02T10:13:06;3.50;;;3.20;;
6205;SDS011;3136;48.788;9.772;2024-03-02T10:15:33;4.30;;;3.00;;
6205;SDS011;3136;48.788;9.772;2024-03-02T10:17:59;2.90;;;2.60;;
6205;SDS011;3136;48.788;9.772;2024-03-02T10:20:25;2.70;;;2.50;;
6205;SDS011;3136;48.788;9.772;2024-03-02T10:22:54;3.57;;;2.97;;
6205;SDS011;3136;48.788;9.772;2024-03-02T10:25:30;4.60;;;3.00;;
6205;SDS011;3136;48.788;9.772;2024-03-02T10:27:59;4.73;;;2.87;;
6205;SDS011;3136;48.788;9.772;2024-03-02T10:30:26;3.80;;;2.97;;
6205;SDS011;3136;48.788;9.772;2024-03-02T10:32:55;4.17;;;2.80;;
6205;SDS011;3136;48.788;9.772;2024-03-02T10:35:21;3.70;;;2.90;;
6205;SDS011;3136;48.788;9.772;2024-03-02T10:37:48;4.03;;;2.83;;
6205;SDS011;3136;48.788;9.772;2024-03-02T10:40:14;3.23;;;2.60;;
6205;SDS011;3136;48.788;9.772;2024-03-02T10:42:41;2.53;;;2.20;;
6205;SDS011;3136;48.788;9.772;2024-03-02T10:45:08;4.33;;;3.43;;
6205;SDS011;3136;48.788;9.772;2024-03-02T10:47:35;3.80;;;3.00;;
6205;SDS011;3136;48.788;9.772;2024-03-02T10:50:02;2.40;;;2.10;;
6205;SDS011;3136;48.788;9.772;2024-03-02T10:52:36;4.97;;;2.30;;
6205;SDS011;3136;48.788;9.772;2024-03-02T10:55:02;2.30;;;2.03;;
6205;SDS011;3136;48.788;9.772;2024-03-02T10:57:33;2.10;;;1.83;;
6205;SDS011;3136;48.788;9.772;2024-03-02T11:00:06;1.90;;;1.70;;
6205;SDS011;3136;48.788;9.772;2024-03-02T11:02:39;2.50;;;1.77;;
6205;SDS011;3136;48.788;9.772;2024-03-02T11:05:15;2.33;;;2.03;;
6205;SDS011;3136;48.788;9.772;2024-03-02T11:07:50;1.83;;;1.73;;
6205;SDS011;3136;48.788;9.772;2024-03-02T11:10:21;6.43;;;1.80;;
6205;SDS011;3136;48.788;9.772;2024-03-02T11:12:53;1.90;;;1.73;;
6205;SDS011;3136;48.788;9.772;2024-03-02T11:15:25;1.80;;;1.70;;
6205;SDS011;3136;48.788;9.772;2024-03-02T11:17:52;2.10;;;1.90;;
6205;SDS011;3136;48.788;9.772;2024-03-02T11:20:19;2.83;;;2.17;;
6205;SDS011;3136;48.788;9.772;2024-03-02T11:22:45;1.67;;;1.57;;
6205;SDS011;3136;48.788;9.772;2024-03-02T11:25:27;2.80;;;1.77;;
6205;SDS011;3136;48.788;9.772;2024-03-02T11:33:00;1.50;;;1.40;;
6205;SDS011;3136;48.788;9.772;2024-03-02T11:35:31;1.70;;;1.60;;
6205;SDS011;3136;48.788;9.772;2024-03-02T11:37:58;1.73;;;1.40;;
6205;SDS011;3136;48.788;9.772;2024-03-02T11:40:27;1.80;;;1.50;;
6205;SDS011;3136;48.788;9.772;2024-03-02T11:42:53;1.70;;;1.60;;
6205;SDS011;3136;48.788;9.772;2024-03-02T11:45:22;1.60;;;1.50;;
6205;SDS011;3136;48.788;9.772;2024-03-02T11:47:55;1.60;;;1.50;;
6205;SDS011;3136;48.788;9.772;2024-03-02T11:50:34;1.90;;;1.70;;
6205;SDS011;3136;48.788;9.772;2024-03-02T11:53:07;1.92;;;1.80;;
6205;SDS011;3136;48.788;9.772;2024-03-02T11:55:35;2.55;;;2.20;;
6205;SDS011;3136;48.788;9.772;2024-03-02T11:58:03;2.05;;;1.90;;
6205;SDS011;3136;48.788;9.772;2024-03-02T12:00:29;2.08;;;1.90;;
6205;SDS011;3136;48.788;9.772;2024-03-02T12:03:07;3.05;;;1.92;;
6205;SDS011;3136;48.788;9.772;2024-03-02T12:05:34;1.92;;;1.83;;
6205;SDS011;3136;48.788;9.772;2024-03-02T12:08:04;1.67;;;1.58;;
6205;SDS011;3136;48.788;9.772;2024-03-02T12:10:31;1.90;;;1.70;;
6205;SDS011;3136;48.788;9.772;2024-03-02T12:13:01;1.80;;;1.70;;
6205;SDS011;3136;48.788;9.772;2024-03-02T12:15:36;1.63;;;1.52;;
6205;SDS011;3136;48.788;9.772;2024-03-02T12:18:03;1.80;;;1.70;;
6205;SDS011;3136;48.788;9.772;2024-03-02T12:20:30;2.47;;;1.60;;
6205;SDS011;3136;48.788;9.772;2024-03-02T12:23:00;1.50;;;1.40;;
6205;SDS011;3136;48.788;9.772;2024-03-02T12:25:27;1.88;;;1.60;;
6205;SDS011;3136;48.788;9.772;2024-03-02T12:27:54;1.98;;;1.50;;
6205;SDS011;3136;48.788;9.772;2024-03-02T12:30:21;2.38;;;1.40;;
6205;SDS011;3136;48.788;9.772;2024-03-02T12:32:47;1.50;;;1.40;;
6205;SDS011;3136;48.788;9.772;2024-03-02T12:35:13;1.80;;;1.20;;
6205;SDS011;3136;48.788;9.772;2024-03-02T12:37:43;1.17;;;1.10;;
6205;SDS011;3136;48.788;9.772;2024-03-02T12:40:16;1.77;;;1.52;;
6205;SDS011;3136;48.788;9.772;2024-03-02T12:42:43;1.70;;;1.60;;
6205;SDS011;3136;48.788;9.772;2024-03-02T12:45:10;1.50;;;1.40;;
6205;SDS011;3136;48.788;9.772;2024-03-02T12:47:36;2.97;;;1.30;;
6205;SDS011;3136;48.788;9.772;2024-03-02T12:50:03;2.28;;;1.83;;
6205;SDS011;3136;48.788;9.772;2024-03-02T12:52:29;1.90;;;1.80;;
6205;SDS011;3136;48.788;9.772;2024-03-02T12:54:57;2.05;;;1.75;;
6205;SDS011;3136;48.788;9.772;2024-03-02T12:57:28;2.28;;;2.00;;
6205;SDS011;3136;48.788;9.772;2024-03-02T12:59:58;2.33;;;2.10;;
6205;SDS011;3136;48.788;9.772;2024-03-02T13:02:27;3.45;;;1.98;;
6205;SDS011;3136;48.788;9.772;2024-03-02T13:04:53;2.75;;;2.20;;
6205;SDS011;3136;48.788;9.772;2024-03-02T13:07:19;4.23;;;2.23;;
6205;SDS011;3136;48.788;9.772;2024-03-02T13:09:54;3.80;;;3.13;;
6205;SDS011;3136;48.788;9.772;2024-03-02T13:12:20;3.72;;;3.13;;
6205;SDS011;3136;48.788;9.772;2024-03-02T13:14:53;2.10;;;1.90;;
6205;SDS011;3136;48.788;9.772;2024-03-02T13:17:19;1.77;;;1.27;;
6205;SDS011;3136;48.788;9.772;2024-03-02T13:19:54;3.15;;;2.10;;
6205;SDS011;3136;48.788;9.772;2024-03-02T13:22:21;5.22;;;4.32;;
6205;SDS011;3136;48.788;9.772;2024-03-02T13:24:48;2.10;;;1.98;;
6205;SDS011;3136;48.788;9.772;2024-03-02T13:27:13;2.55;;;1.10;;
6205;SDS011;3136;48.788;9.772;2024-03-02T13:29:39;2.40;;;1.00;;
6205;SDS011;3136;48.788;9.772;2024-03-02T13:32:05;0.88;;;0.88;;
6205;SDS011;3136;48.788;9.772;2024-03-02T13:34:31;1.13;;;0.93;;
6205;SDS011;3136;48.788;9.772;2024-03-02T13:36:56;4.35;;;1.30;;
6205;SDS011;3136;48.788;9.772;2024-03-02T13:39:22;1.97;;;1.20;;
6205;SDS011;3136;48.788;9.772;2024-03-02T13:41:48;1.57;;;1.20;;
6205;SDS011;3136;48.788;9.772;2024-03-02T13:44:18;1.83;;;1.27;;
6205;SDS011;3136;48.788;9.772;2024-03-02T13:46:44;1.70;;;1.50;;
6205;SDS011;3136;48.788;9.772;2024-03-02T13:49:11;2.60;;;1.20;;
6205;SDS011;3136;48.788;9.772;2024-03-02T13:51:37;1.10;;;1.10;;
6205;SDS011;3136;48.788;9.772;2024-03-02T13:54:02;1.40;;;1.30;;
6205;SDS011;3136;48.788;9.772;2024-03-02T13:56:28;2.37;;;1.67;;
6205;SDS011;3136;48.788;9.772;2024-03-02T13:58:54;2.50;;;2.30;;
6205;SDS011;3136;48.788;9.772;2024-03-02T14:01:20;2.10;;;1.90;;
6205;SDS011;3136;48.788;9.772;2024-03-02T14:03:46;2.53;;;1.80;;
6205;SDS011;3136;48.788;9.772;2024-03-02T14:06:12;3.30;;;1.80;;
6205;SDS011;3136;48.788;9.772;2024-03-02T14:08:38;1.90;;;1.30;;
6205;SDS011;3136;48.788;9.772;2024-03-02T14:11:03;2.83;;;1.90;;
6205;SDS011;3136;48.788;9.772;2024-03-02T14:13:29;4.97;;;2.47;;
6205;SDS011;3136;48.788;9.772;2024-03-02T14:15:54;2.00;;;1.80;;
6205;SDS011;3136;48.788;9.772;2024-03-02T14:18:20;2.95;;;2.55;;
6205;SDS011;3136;48.788;9.772;2024-03-02T14:20:49;2.53;;;1.80;;
6205;SDS011;3136;48.788;9.772;2024-03-02T14:23:17;3.13;;;2.40;;
6205;SDS011;3136;48.788;9.772;2024-03-02T14:25:44;2.20;;;1.90;;
6205;SDS011;3136;48.788;9.772;2024-03-02T14:28:10;2.53;;;2.33;;
6205;SDS011;3136;48.788;9.772;2024-03-02T14:30:37;3.08;;;2.78;;
6205;SDS011;3136;48.788;9.772;2024-03-02T14:33:02;2.63;;;1.90;;
6205;SDS011;3136;48.788;9.772;2024-03-02T14:35:28;3.50;;;2.77;;
6205;SDS011;3136;48.788;9.772;2024-03-02T14:37:54;3.70;;;2.47;;
6205;SDS011;3136;48.788;9.772;2024-03-02T14:40:20;4.93;;;3.97;;
6205;SDS011;3136;48.788;9.772;2024-03-02T14:42:46;16.67;;;14.97;;
6205;SDS011;3136;48.788;9.772;2024-03-02T14:45:13;4.50;;;3.13;;
6205;SDS011;3136;48.788;9.772;2024-03-02T14:47:39;2.60;;;2.40;;
6205;SDS011;3136;48.788;9.772;2024-03-02T14:50:04;18.10;;;16.17;;
6205;SDS011;3136;48.788;9.772;2024-03-02T14:52:34;5.70;;;5.10;;
6205;SDS011;3136;48.788;9.772;2024-03-02T14:55:00;3.87;;;3.00;;
6205;SDS011;3136;48.788;9.772;2024-03-02T14:57:27;2.23;;;2.00;;
6205;SDS011;3136;48.788;9.772;2024-03-02T14:59:53;2.70;;;1.77;;
6205;SDS011;3136;48.788;9.772;2024-03-02T15:02:19;6.03;;;2.40;;
6205;SDS011;3136;48.788;9.772;2024-03-02T15:04:45;5.37;;;2.87;;
6205;SDS011;3136;48.788;9.772;2024-03-02T15:07:12;1.70;;;1.60;;
6205;SDS011;3136;48.788;9.772;2024-03-02T15:09:38;2.63;;;2.43;;